Portland, Oregon
Traffic Map
Current Weather Conditions
Portland, Oregon
Few Clouds
Few Clouds
58°
Feels Like: 58°
Wind Chill: 58° Ceiling: Unl
Heat Index: 58° Visibility: 10mi
Dew Point: 53° Wind: 0mph
Humidity: 84% Direction: ° ()
Pressure: 30.25in Gusts: 0mph
Raw Report DataKPDX 281253Z 00000KT 10SM FEW020 FEW120 14/12 A3025 RMK AO2 SLP242 T01440117
Traffic Incident Summary
Active as of:
Severity:
Category:
InformationThere was an issue retrieving the traffic information for this location. Please try a different location or try again shortly.
Advertisements
Track Severe Weather on mobile